createdAt,value
2018-08-24T00:01:10.415Z,100328.64
2018-08-24T00:03:39.248Z,100329.18
2018-08-24T00:06:07.928Z,100324.00
2018-08-24T00:08:36.825Z,100327.27
2018-08-24T00:11:06.623Z,100327.03
2018-08-24T00:13:35.349Z,100319.13
2018-08-24T00:16:04.071Z,100320.22
2018-08-24T00:18:33.062Z,100310.67
2018-08-24T00:21:01.844Z,100310.12
2018-08-24T00:23:30.493Z,100303.31
2018-08-24T00:25:59.585Z,100301.41
2018-08-24T00:28:28.314Z,100297.04
2018-08-24T00:30:58.692Z,100292.67
2018-08-24T00:33:29.590Z,100292.70
2018-08-24T00:35:59.405Z,100289.75
2018-08-24T00:38:29.626Z,100290.56
2018-08-24T00:40:59.324Z,100283.75
2018-08-24T00:43:29.873Z,100275.33
2018-08-24T00:45:59.672Z,100277.23
2018-08-24T00:48:28.852Z,100274.27
2018-08-24T00:50:58.988Z,100278.08
2018-08-24T00:53:27.776Z,100270.75
2018-08-24T00:55:57.649Z,100272.41
2018-08-24T00:58:27.044Z,100270.27
2018-08-24T01:01:02.511Z,100271.36
2018-08-24T01:03:32.322Z,100257.98
2018-08-24T01:06:01.614Z,100256.36
2018-08-24T01:08:32.119Z,100265.39
2018-08-24T01:11:02.324Z,100267.30
2018-08-24T01:13:31.628Z,100263.23
2018-08-24T01:16:02.772Z,100264.58
2018-08-24T01:18:37.243Z,100261.05
2018-08-24T01:21:08.235Z,100258.58
2018-08-24T01:23:39.286Z,100267.02
2018-08-24T01:26:09.094Z,100264.01
2018-08-24T01:28:38.593Z,100267.55
2018-08-24T01:31:08.972Z,100251.45
2018-08-24T01:33:39.511Z,100247.09
2018-08-24T01:36:09.482Z,100239.71
2018-08-24T01:38:39.817Z,100238.11
2018-08-24T01:41:09.474Z,100239.44
2018-08-24T01:43:38.566Z,100246.00
2018-08-24T01:46:12.334Z,100234.31
2018-08-24T01:48:41.823Z,100232.95
2018-08-24T01:51:11.384Z,100232.14
2018-08-24T01:53:40.880Z,100232.95
2018-08-24T01:56:09.693Z,100240.34
2018-08-24T01:58:40.077Z,100251.53
2018-08-24T02:01:10.259Z,100252.59
2018-08-24T02:03:39.669Z,100245.00
2018-08-24T02:06:09.037Z,100242.01
2018-08-24T02:08:38.917Z,100232.75
2018-08-24T02:11:13.512Z,100235.20
2018-08-24T02:13:47.961Z,100234.92
2018-08-24T02:16:18.649Z,100230.84
2018-08-24T02:18:53.502Z,100225.67
2018-08-24T02:21:27.860Z,100224.05
2018-08-24T02:23:56.962Z,100227.05
2018-08-24T02:26:26.628Z,100233.01
2018-08-24T02:28:56.727Z,100233.58
2018-08-24T02:31:26.985Z,100230.84
2018-08-24T02:33:56.687Z,100234.95
2018-08-24T02:36:26.344Z,100239.30
2018-08-24T02:38:55.135Z,100241.48
2018-08-24T02:41:25.073Z,100235.48
2018-08-24T02:43:55.133Z,100238.46
2018-08-24T02:46:24.930Z,100231.13
2018-08-24T02:48:54.240Z,100231.39
2018-08-24T02:51:24.362Z,100226.23
2018-08-24T02:53:54.092Z,100227.84
2018-08-24T02:56:23.782Z,100229.98
2018-08-24T02:58:53.195Z,100233.25
2018-08-24T03:01:22.901Z,100226.92
2018-08-24T03:03:52.282Z,100229.05
2018-08-24T03:06:22.582Z,100223.61
2018-08-24T03:08:52.497Z,100222.79
2018-08-24T03:11:22.883Z,100222.76
2018-08-24T03:13:52.709Z,100221.06
2018-08-24T03:16:22.472Z,100216.42
2018-08-24T03:18:53.339Z,100219.66
2018-08-24T03:21:23.155Z,100216.09
2018-08-24T03:23:52.535Z,100218.02
2018-08-24T03:26:22.979Z,100222.06
2018-08-24T03:28:52.384Z,100221.80
2018-08-24T03:31:21.125Z,100218.53
2018-08-24T03:33:51.125Z,100228.56
2018-08-24T03:36:20.501Z,100223.38
2018-08-24T03:38:49.371Z,100233.95
2018-08-24T03:41:18.764Z,100240.36
2018-08-24T03:43:47.905Z,100230.50
2018-08-24T03:46:17.653Z,100216.94
2018-08-24T03:48:47.454Z,100221.77
2018-08-24T03:51:17.687Z,100213.07
2018-08-24T03:53:47.801Z,100213.86
2018-08-24T03:56:16.570Z,100217.59
2018-08-24T03:58:46.354Z,100229.52
2018-08-24T04:01:15.581Z,100235.98
2018-08-24T04:03:45.308Z,100236.74
2018-08-24T04:06:15.193Z,100237.81
2018-08-24T04:08:44.630Z,100232.90
2018-08-24T04:11:14.653Z,100236.43
2018-08-24T04:13:44.118Z,100233.94
2018-08-24T04:16:13.657Z,100236.14
2018-08-24T04:18:43.204Z,100239.17
2018-08-24T04:21:13.131Z,100240.56
2018-08-24T04:23:43.170Z,100244.72
2018-08-24T04:26:13.227Z,100240.45
2018-08-24T04:28:43.035Z,100239.21
2018-08-24T04:31:12.865Z,100239.56
2018-08-24T04:33:43.961Z,100240.72
2018-08-24T04:36:14.109Z,100242.16
2018-08-24T04:38:44.141Z,100249.53
2018-08-24T04:41:15.141Z,100250.91
2018-08-24T04:43:44.584Z,100251.25
2018-08-24T04:46:14.096Z,100250.44
2018-08-24T04:48:43.552Z,100248.05
2018-08-24T04:51:12.947Z,100243.17
2018-08-24T04:53:42.609Z,100238.59
2018-08-24T04:56:12.095Z,100238.84
2018-08-24T04:58:40.763Z,100245.39
2018-08-24T05:01:10.471Z,100244.04
2018-08-24T05:03:39.264Z,100244.89
2018-08-24T05:06:09.786Z,100234.84
2018-08-24T05:08:38.579Z,100233.25
2018-08-24T05:11:07.442Z,100244.92
2018-08-24T05:13:36.315Z,100244.13
2018-08-24T05:16:05.195Z,100238.39
2018-08-24T05:18:34.964Z,100237.31
2018-08-24T05:21:04.263Z,100251.20
2018-08-24T05:23:33.510Z,100251.48
2018-08-24T05:26:04.837Z,100252.28
2018-08-24T05:28:33.664Z,100250.39
2018-08-24T05:31:03.130Z,100253.64
2018-08-24T05:33:33.018Z,100247.12
2018-08-24T05:36:01.725Z,100254.17
2018-08-24T05:38:32.470Z,100263.42
2018-08-24T05:41:02.804Z,100259.08
2018-08-24T05:43:31.927Z,100263.70
2018-08-24T05:46:01.925Z,100270.51
2018-08-24T05:48:30.728Z,100268.88
2018-08-24T05:50:59.595Z,100268.59
2018-08-24T05:53:29.922Z,100265.34
2018-08-24T05:55:58.626Z,100260.45
2018-08-24T05:58:27.357Z,100270.03
2018-08-24T06:00:56.124Z,100271.66
2018-08-24T06:03:24.980Z,100268.65
2018-08-24T06:05:59.066Z,100271.11
2018-08-24T06:08:27.945Z,100273.02
2018-08-24T06:10:58.801Z,100284.14
2018-08-24T06:13:29.151Z,100284.64
2018-08-24T06:15:58.450Z,100290.63
2018-08-24T06:18:27.407Z,100285.98
2018-08-24T06:20:56.309Z,100286.50
2018-08-24T06:23:25.064Z,100288.42
2018-08-24T06:25:54.060Z,100306.92
2018-08-24T06:28:22.793Z,100305.31
2018-08-24T06:30:51.638Z,100300.70
2018-08-24T06:33:23.153Z,100293.10
2018-08-24T06:35:52.944Z,100284.17
2018-08-24T06:38:21.750Z,100288.25
2018-08-24T06:40:50.954Z,100288.80
2018-08-24T06:43:19.789Z,100284.47
2018-08-24T06:45:48.785Z,100287.72
2018-08-24T06:48:17.539Z,100286.64
2018-08-24T06:50:46.212Z,100286.08
2018-08-24T06:53:15.831Z,100270.30
2018-08-24T06:55:44.707Z,100282.00
2018-08-24T06:58:13.541Z,100286.95
2018-08-24T07:00:44.167Z,100289.62
2018-08-24T07:03:13.557Z,100294.57
2018-08-24T07:05:42.456Z,100294.80
2018-08-24T07:08:12.121Z,100297.81
2018-08-24T07:10:43.128Z,100296.98
2018-08-24T07:13:13.710Z,100311.44
2018-08-24T07:15:43.152Z,100316.88
2018-08-24T07:18:12.476Z,100317.14
2018-08-24T07:20:41.933Z,100316.86
2018-08-24T07:23:11.846Z,100313.31
2018-08-24T07:25:42.545Z,100308.66
2018-08-24T07:28:12.061Z,100319.28
2018-08-24T07:30:42.851Z,100314.38
2018-08-24T07:33:13.210Z,100307.32
2018-08-24T07:35:43.380Z,100312.23
2018-08-24T07:38:13.657Z,100311.41
2018-08-24T07:40:43.392Z,100319.27
2018-08-24T07:43:12.417Z,100315.39
2018-08-24T07:45:42.335Z,100309.38
2018-08-24T07:48:11.538Z,100315.31
2018-08-24T07:50:41.715Z,100322.98
2018-08-24T07:53:11.013Z,100315.06
2018-08-24T07:55:42.103Z,100309.89
2018-08-24T07:58:10.955Z,100314.28
2018-08-24T08:00:41.053Z,100319.19
2018-08-24T08:03:11.296Z,100324.37
2018-08-24T08:05:40.181Z,100327.09
2018-08-24T08:08:09.818Z,100333.39
2018-08-24T08:10:39.849Z,100339.98
2018-08-24T08:13:11.117Z,100345.48
2018-08-24T08:15:41.354Z,100339.47
2018-08-24T08:18:10.255Z,100347.06
2018-08-24T08:20:39.796Z,100342.73
2018-08-24T08:23:09.778Z,100351.42
2018-08-24T08:25:38.452Z,100348.41
2018-08-24T08:28:08.157Z,100358.75
2018-08-24T08:30:38.128Z,100357.39
2018-08-24T08:33:07.155Z,100356.84
2018-08-24T08:35:36.645Z,100357.95
2018-08-24T08:38:06.735Z,100354.16
2018-08-24T08:40:36.430Z,100350.38
2018-08-24T08:43:06.090Z,100345.73
2018-08-24T08:45:35.300Z,100351.42
2018-08-24T08:48:04.849Z,100352.52
2018-08-24T08:50:34.367Z,100356.86
2018-08-24T08:53:04.693Z,100356.91
2018-08-24T08:55:35.746Z,100361.55
2018-08-24T08:58:04.748Z,100362.59
2018-08-24T09:00:33.421Z,100365.32
2018-08-24T09:03:02.552Z,100354.95
2018-08-24T09:05:31.208Z,100359.84
2018-08-24T09:08:00.739Z,100362.55
2018-08-24T09:10:30.291Z,100369.61
2018-08-24T09:13:00.129Z,100373.45
2018-08-24T09:15:30.031Z,100378.11
2018-08-24T09:18:04.978Z,100378.11
2018-08-24T09:20:39.355Z,100365.86
2018-08-24T09:23:13.841Z,100365.55
2018-08-24T09:25:47.959Z,100366.67
2018-08-24T09:28:23.407Z,100371.28
2018-08-24T09:30:56.513Z,100372.09
2018-08-24T09:33:26.516Z,100374.03
2018-08-24T09:35:55.267Z,100378.34
2018-08-24T09:38:24.624Z,100382.86
2018-08-24T09:40:58.580Z,100380.79
2018-08-24T09:43:33.671Z,100379.30
2018-08-24T09:46:03.533Z,100386.77
2018-08-24T09:48:38.128Z,100385.92
2018-08-24T09:51:12.124Z,100386.56
2018-08-24T09:53:46.836Z,100386.56
2018-08-24T09:56:18.008Z,100386.36
2018-08-24T09:58:47.345Z,100381.18
2018-08-24T10:01:22.093Z,100390.00
2018-08-24T10:03:56.456Z,100388.66
2018-08-24T10:06:31.450Z,100400.19
2018-08-24T10:09:00.725Z,100386.02
2018-08-24T10:11:30.658Z,100397.48
2018-08-24T10:13:59.462Z,100394.21
2018-08-24T10:16:29.061Z,100394.50
2018-08-24T10:18:58.284Z,100389.58
2018-08-24T10:21:27.224Z,100399.89
2018-08-24T10:23:56.489Z,100403.14
2018-08-24T10:26:26.538Z,100402.86
2018-08-24T10:28:55.248Z,100408.86
2018-08-24T10:31:24.397Z,100408.86
2018-08-24T10:33:53.135Z,100418.39
2018-08-24T10:36:22.318Z,100414.32
2018-08-24T10:38:51.470Z,100417.86
2018-08-24T10:41:22.256Z,100425.75
2018-08-24T10:43:51.546Z,100429.31
2018-08-24T10:46:21.420Z,100434.20
2018-08-24T10:48:50.157Z,100445.30
2018-08-24T10:51:19.005Z,100449.12
2018-08-24T10:53:48.095Z,100442.84
2018-08-24T10:56:17.164Z,100454.02
2018-08-24T10:58:46.875Z,100453.37
2018-08-24T11:01:16.302Z,100466.06
2018-08-24T11:03:45.033Z,100467.16
2018-08-24T11:06:14.064Z,100478.35
2018-08-24T11:08:42.741Z,100482.98
2018-08-24T11:11:11.569Z,100491.56
2018-08-24T11:13:40.763Z,100493.39
2018-08-24T11:16:09.528Z,100483.41
2018-08-24T11:18:38.944Z,100484.16
2018-08-24T11:21:08.039Z,100486.72
2018-08-24T11:23:36.738Z,100494.60
2018-08-24T11:26:07.097Z,100491.73
2018-08-24T11:28:38.250Z,100491.70
2018-08-24T11:31:07.133Z,100498.52
2018-08-24T11:33:36.569Z,100499.44
2018-08-24T11:36:06.398Z,100507.47
2018-08-24T11:38:34.996Z,100512.42
2018-08-24T11:41:03.977Z,100510.77
2018-08-24T11:43:32.747Z,100484.55
2018-08-24T11:46:02.110Z,100483.29
2018-08-24T11:48:31.453Z,100486.72
2018-08-24T11:51:01.195Z,100487.63
2018-08-24T11:53:30.690Z,100483.61
2018-08-24T11:55:59.791Z,100487.95
2018-08-24T11:58:28.511Z,100487.41
2018-08-24T12:00:57.175Z,100481.39
2018-08-24T12:03:25.911Z,100477.33
2018-08-24T12:05:54.545Z,100470.61
2018-08-24T12:08:23.717Z,100471.52
2018-08-24T12:10:52.455Z,100463.50
2018-08-24T12:13:21.488Z,100468.41
2018-08-24T12:15:50.601Z,100471.16
2018-08-24T12:18:19.377Z,100472.28
2018-08-24T12:20:48.290Z,100468.99
2018-08-24T12:23:17.817Z,100466.98
2018-08-24T12:25:46.534Z,100468.63
2018-08-24T12:28:15.486Z,100469.66
2018-08-24T12:30:44.200Z,100459.72
2018-08-24T12:33:13.286Z,100446.93
2018-08-24T12:35:42.570Z,100445.31
2018-08-24T12:38:11.715Z,100443.44
2018-08-24T12:40:40.473Z,100447.38
2018-08-24T12:43:09.671Z,100451.69
2018-08-24T12:45:38.399Z,100450.83
2018-08-24T12:48:07.412Z,100457.18
2018-08-24T12:50:36.608Z,100440.33
2018-08-24T12:53:05.621Z,100450.97
2018-08-24T12:55:40.751Z,100452.92
2018-08-24T12:58:09.476Z,100459.07
2018-08-24T13:00:38.185Z,100450.41
2018-08-24T13:03:08.679Z,100457.84
2018-08-24T13:05:38.500Z,100447.52
2018-08-24T13:08:07.289Z,100451.62
2018-08-24T13:10:35.958Z,100451.80
2018-08-24T13:13:04.683Z,100450.14
2018-08-24T13:15:33.391Z,100457.78
2018-08-24T13:18:02.056Z,100448.06
2018-08-24T13:20:30.865Z,100460.70
2018-08-24T13:22:59.833Z,100460.91
2018-08-24T13:25:28.510Z,100461.98
2018-08-24T13:27:57.220Z,100460.06
2018-08-24T13:30:25.921Z,100458.17
2018-08-24T13:32:55.132Z,100464.16
2018-08-24T13:35:24.684Z,100462.30
2018-08-24T13:37:54.894Z,100453.87
2018-08-24T13:40:24.080Z,100448.50
2018-08-24T13:42:52.873Z,100447.89
2018-08-24T13:45:21.709Z,100448.42
2018-08-24T13:47:51.167Z,100446.85
2018-08-24T13:50:20.209Z,100438.28
2018-08-24T13:52:49.265Z,100433.32
2018-08-24T13:55:17.958Z,100433.59
2018-08-24T13:57:46.861Z,100436.14
2018-08-24T14:00:15.580Z,100431.14
2018-08-24T14:02:44.336Z,100431.81
2018-08-24T14:05:13.277Z,100430.04
2018-08-24T14:07:42.734Z,100430.93
2018-08-24T14:10:13.329Z,100436.06
2018-08-24T14:12:43.923Z,100438.25
2018-08-24T14:15:13.258Z,100444.94
2018-08-24T14:17:42.381Z,100455.33
2018-08-24T14:20:11.042Z,100447.69
2018-08-24T14:22:40.084Z,100447.11
2018-08-24T14:25:09.095Z,100448.27
2018-08-24T14:27:37.757Z,100445.77
2018-08-24T14:30:07.629Z,100439.62
2018-08-24T14:32:36.528Z,100444.11
2018-08-24T14:35:05.313Z,100438.61
2018-08-24T14:37:34.774Z,100437.73
2018-08-24T14:40:03.571Z,100434.23
2018-08-24T14:42:32.365Z,100435.73
2018-08-24T14:45:02.217Z,100423.77
2018-08-24T14:47:31.225Z,100423.17
2018-08-24T14:49:59.957Z,100428.92
2018-08-24T14:52:28.758Z,100428.28
2018-08-24T14:54:58.857Z,100427.83
2018-08-24T14:57:27.616Z,100427.61
2018-08-24T14:59:56.321Z,100425.75
2018-08-24T15:02:25.077Z,100424.79
2018-08-24T15:04:54.245Z,100433.05
2018-08-24T15:07:23.318Z,100437.97
2018-08-24T15:09:52.498Z,100430.13
2018-08-24T15:12:21.376Z,100435.56
2018-08-24T15:14:50.208Z,100432.47
2018-08-24T15:17:19.309Z,100439.84
2018-08-24T15:19:48.688Z,100427.64
2018-08-24T15:22:18.092Z,100433.94
2018-08-24T15:24:46.825Z,100433.77
2018-08-24T15:27:15.777Z,100441.60
2018-08-24T15:29:44.673Z,100432.55
2018-08-24T15:32:13.835Z,100437.78
2018-08-24T15:34:42.684Z,100452.05
2018-08-24T15:37:11.938Z,100446.66
2018-08-24T15:39:40.553Z,100443.49
2018-08-24T15:42:10.026Z,100453.85
2018-08-24T15:44:38.694Z,100454.41
2018-08-24T15:47:07.381Z,100456.88
2018-08-24T15:49:36.321Z,100449.50
2018-08-24T15:52:05.474Z,100454.37
2018-08-24T15:54:34.545Z,100451.37
2018-08-24T15:57:03.317Z,100457.09
2018-08-24T15:59:31.998Z,100458.38
2018-08-24T16:02:00.848Z,100459.91
2018-08-24T16:04:29.516Z,100460.68
2018-08-24T16:06:58.213Z,100459.53
2018-08-24T16:09:26.897Z,100461.09
2018-08-24T16:11:55.917Z,100459.74
2018-08-24T16:14:24.632Z,100461.17
2018-08-24T16:16:53.622Z,100462.51
2018-08-24T16:19:22.343Z,100456.45
2018-08-24T16:21:51.269Z,100453.70
2018-08-24T16:24:20.111Z,100462.94
2018-08-24T16:26:48.813Z,100462.75
2018-08-24T16:29:18.212Z,100465.80
2018-08-24T16:31:47.716Z,100468.34
2018-08-24T16:34:16.735Z,100468.47
2018-08-24T16:36:45.529Z,100467.69
2018-08-24T16:39:14.258Z,100472.87
2018-08-24T16:44:11.190Z,100467.59
2018-08-24T16:46:40.153Z,100463.48
2018-08-24T16:49:08.849Z,100461.00
2018-08-24T16:51:37.621Z,100449.89
2018-08-24T16:54:06.402Z,100457.11
2018-08-24T16:56:35.587Z,100455.64
2018-08-24T16:59:04.692Z,100461.30
2018-08-24T17:01:34.148Z,100458.27
2018-08-24T17:04:03.172Z,100460.98
2018-08-24T17:06:31.977Z,100459.54
2018-08-24T17:09:00.634Z,100463.02
2018-08-24T17:11:29.456Z,100458.05
2018-08-24T17:13:58.393Z,100467.02
2018-08-24T17:16:27.096Z,100463.52
2018-08-24T17:18:56.060Z,100458.69
2018-08-24T17:21:24.742Z,100458.75
2018-08-24T17:23:53.604Z,100461.81
2018-08-24T17:26:22.961Z,100460.92
2018-08-24T17:28:52.006Z,100462.82
2018-08-24T17:31:20.684Z,100465.25
2018-08-24T17:33:49.496Z,100465.95
2018-08-24T17:36:18.246Z,100471.77
2018-08-24T17:38:47.002Z,100481.27
2018-08-24T17:41:16.045Z,100477.95
2018-08-24T17:43:46.063Z,100483.55
2018-08-24T17:46:15.059Z,100478.70
2018-08-24T17:48:43.713Z,100482.52
2018-08-24T17:51:12.982Z,100484.45
2018-08-24T17:53:41.618Z,100480.87
2018-08-24T17:56:10.361Z,100480.55
2018-08-24T17:58:39.135Z,100488.48
2018-08-24T18:01:08.144Z,100493.63
2018-08-24T18:03:36.789Z,100496.18
2018-08-24T18:06:05.880Z,100499.17
2018-08-24T18:08:34.526Z,100507.81
2018-08-24T18:11:03.417Z,100514.92
2018-08-24T18:13:32.220Z,100511.83
2018-08-24T18:16:00.887Z,100516.03
2018-08-24T18:18:29.677Z,100517.05
2018-08-24T18:20:59.960Z,100510.70
2018-08-24T18:23:29.284Z,100519.03
2018-08-24T18:25:58.627Z,100515.97
2018-08-24T18:28:27.561Z,100519.46
2018-08-24T18:30:56.484Z,100526.62
2018-08-24T18:33:25.787Z,100526.27
2018-08-24T18:35:55.151Z,100529.13
2018-08-24T18:38:23.836Z,100531.41
2018-08-24T18:40:52.617Z,100543.09
2018-08-24T18:43:21.391Z,100544.45
2018-08-24T18:45:50.389Z,100547.74
2018-08-24T18:48:19.717Z,100554.56
2018-08-24T18:50:48.750Z,100559.41
2018-08-24T18:53:17.595Z,100561.81
2018-08-24T18:55:46.410Z,100566.94
2018-08-24T18:58:15.193Z,100567.13
2018-08-24T19:00:44.210Z,100577.13
2018-08-24T19:03:12.912Z,100574.66
2018-08-24T19:05:41.750Z,100568.89
2018-08-24T19:08:11.769Z,100567.01
2018-08-24T19:10:46.148Z,100570.52
2018-08-24T19:13:16.874Z,100571.00
2018-08-24T19:15:46.901Z,100564.66
2018-08-24T19:18:20.664Z,100571.72
2018-08-24T19:20:55.868Z,100576.18
2018-08-24T19:23:25.595Z,100575.06
2018-08-24T19:25:54.293Z,100581.39
2018-08-24T19:28:29.224Z,100581.61
2018-08-24T19:30:57.982Z,100586.63
2018-08-24T19:33:27.034Z,100588.08
2018-08-24T19:35:56.256Z,100592.22
2018-08-24T19:38:25.344Z,100588.21
2018-08-24T19:40:59.317Z,100587.79
2018-08-24T19:43:28.639Z,100584.25
2018-08-24T19:45:57.872Z,100586.64
2018-08-24T19:48:32.232Z,100585.66
2018-08-24T19:51:01.121Z,100588.00
2018-08-24T19:53:29.808Z,100584.09
2018-08-24T19:55:58.567Z,100580.25
2018-08-24T19:58:32.680Z,100575.13
2018-08-24T20:01:01.813Z,100577.61
2018-08-24T20:03:30.896Z,100575.31
2018-08-24T20:06:06.026Z,100576.48
2018-08-24T20:08:40.439Z,100574.54
2018-08-24T20:11:09.555Z,100578.31
2018-08-24T20:13:38.485Z,100587.87
2018-08-24T20:16:12.982Z,100584.84
2018-08-24T20:18:41.947Z,100590.00
2018-08-24T20:21:10.639Z,100584.36
2018-08-24T20:23:39.812Z,100586.77
2018-08-24T20:26:08.814Z,100580.30
2018-08-24T20:28:37.839Z,100581.91
2018-08-24T20:31:07.274Z,100580.86
2018-08-24T20:33:36.244Z,100587.23
2018-08-24T20:36:04.963Z,100589.17
2018-08-24T20:38:34.150Z,100589.86
2018-08-24T20:41:02.910Z,100592.95
2018-08-24T20:43:31.656Z,100598.70
2018-08-24T20:46:01.932Z,100595.17
2018-08-24T20:48:32.348Z,100600.44
2018-08-24T20:51:02.047Z,100598.17
2018-08-24T20:53:32.060Z,100603.79
2018-08-24T20:56:01.334Z,100605.02
2018-08-24T20:58:30.544Z,100607.34
2018-08-24T21:00:59.743Z,100602.95
2018-08-24T21:03:28.788Z,100600.83
2018-08-24T21:05:58.907Z,100599.37
2018-08-24T21:08:28.523Z,100600.96
2018-08-24T21:10:58.640Z,100608.34
2018-08-24T21:13:28.178Z,100603.33
2018-08-24T21:15:58.345Z,100610.45
2018-08-24T21:18:32.703Z,100609.87
2018-08-24T21:21:01.499Z,100608.41
2018-08-24T21:23:30.681Z,100606.20
2018-08-24T21:26:01.036Z,100605.53
2018-08-24T21:28:30.107Z,100609.20
2018-08-24T21:30:58.870Z,100611.17
2018-08-24T21:33:27.788Z,100607.23
2018-08-24T21:35:58.645Z,100608.37
2018-08-24T21:38:29.490Z,100616.49
2018-08-24T21:40:59.517Z,100611.38
2018-08-24T21:43:29.057Z,100613.05
2018-08-24T21:45:59.208Z,100610.92
2018-08-24T21:48:28.408Z,100603.14
2018-08-24T21:50:57.598Z,100608.03
2018-08-24T21:53:26.797Z,100611.00
2018-08-24T21:55:55.740Z,100615.81
2018-08-24T21:58:24.851Z,100619.55
2018-08-24T22:00:53.570Z,100623.42
2018-08-24T22:03:22.277Z,100621.25
2018-08-24T22:05:50.949Z,100629.01
2018-08-24T22:08:20.028Z,100622.61
2018-08-24T22:10:48.731Z,100623.50
2018-08-24T22:13:17.951Z,100632.21
2018-08-24T22:15:47.017Z,100632.54
2018-08-24T22:18:15.888Z,100633.66
2018-08-24T22:20:44.582Z,100622.59
2018-08-24T22:23:13.373Z,100633.75
2018-08-24T22:25:42.457Z,100633.13
2018-08-24T22:28:12.634Z,100638.19
2018-08-24T22:30:41.450Z,100636.30
2018-08-24T22:33:10.464Z,100646.13
2018-08-24T22:35:39.312Z,100645.77
2018-08-24T22:38:08.128Z,100639.64
2018-08-24T22:40:37.066Z,100638.76
2018-08-24T22:43:09.986Z,100641.77
2018-08-24T22:45:38.765Z,100623.02
2018-08-24T22:48:07.870Z,100628.45
2018-08-24T22:50:36.688Z,100629.27
2018-08-24T22:53:06.050Z,100626.36
2018-08-24T22:55:34.709Z,100626.16
2018-08-24T22:58:04.302Z,100620.59
2018-08-24T23:00:34.173Z,100617.80
2018-08-24T23:03:03.143Z,100613.64
2018-08-24T23:05:31.946Z,100607.68
2018-08-24T23:08:01.190Z,100613.07
2018-08-24T23:10:31.409Z,100619.44
2018-08-24T23:13:02.046Z,100621.09
2018-08-24T23:15:31.196Z,100612.77
2018-08-24T23:18:01.034Z,100616.37
2018-08-24T23:20:31.492Z,100611.41
2018-08-24T23:23:00.329Z,100605.56
2018-08-24T23:25:29.627Z,100615.43
2018-08-24T23:27:58.897Z,100617.31
2018-08-24T23:30:29.559Z,100608.14
2018-08-24T23:32:58.500Z,100616.81
2018-08-24T23:35:27.737Z,100618.46
2018-08-24T23:37:57.336Z,100615.43
2018-08-24T23:40:26.550Z,100608.92
2018-08-24T23:42:55.392Z,100608.40
2018-08-24T23:45:24.580Z,100604.22
2018-08-24T23:47:54.944Z,100600.53
2018-08-24T23:50:23.793Z,100600.44
2018-08-24T23:52:52.673Z,100600.34
2018-08-24T23:55:21.961Z,100601.42
2018-08-24T23:57:50.735Z,100585.03
